createdAt,value
2022-08-29T00:00:18.588Z,26.04
2022-08-29T00:01:21.481Z,26.04
2022-08-29T00:02:24.952Z,26.04
2022-08-29T00:03:28.739Z,26.03
2022-08-29T00:04:31.801Z,26.02
2022-08-29T00:05:36.816Z,26.00
2022-08-29T00:06:39.031Z,26.01
2022-08-29T00:07:40.901Z,26.00
2022-08-29T00:08:42.790Z,25.99
2022-08-29T00:09:44.696Z,25.99
2022-08-29T00:10:47.227Z,25.98
2022-08-29T00:11:49.064Z,25.97
2022-08-29T00:12:51.072Z,25.96
2022-08-29T00:13:53.096Z,25.97
2022-08-29T00:14:54.934Z,25.96
2022-08-29T00:15:56.687Z,25.96
2022-08-29T00:16:58.776Z,25.96
2022-08-29T00:18:01.010Z,25.94
2022-08-29T00:19:02.830Z,25.95
2022-08-29T00:20:06.863Z,25.93
2022-08-29T00:21:08.669Z,25.93
2022-08-29T00:22:10.691Z,25.93
2022-08-29T00:23:12.859Z,25.92
2022-08-29T00:24:14.716Z,25.92
2022-08-29T00:25:17.144Z,25.91
2022-08-29T00:26:18.911Z,25.91
2022-08-29T00:27:20.658Z,25.91
2022-08-29T00:28:22.875Z,25.89
2022-08-29T00:29:24.623Z,25.90
2022-08-29T00:30:26.721Z,25.89
2022-08-29T00:31:29.024Z,25.85
2022-08-29T00:32:35.199Z,25.86
2022-08-29T00:33:38.289Z,25.73
2022-08-29T00:34:41.230Z,25.90
2022-08-29T00:35:44.777Z,25.86
2022-08-29T00:36:49.239Z,25.89
2022-08-29T00:37:52.322Z,25.80
2022-08-29T00:38:54.410Z,25.87
2022-08-29T00:39:56.371Z,25.87
2022-08-29T00:40:58.843Z,25.86
2022-08-29T00:42:00.659Z,25.80
2022-08-29T00:43:03.348Z,25.85
2022-08-29T00:44:05.770Z,25.84
2022-08-29T00:45:11.184Z,25.84
2022-08-29T00:46:19.054Z,25.87
2022-08-29T00:47:26.672Z,25.85
2022-08-29T00:48:29.002Z,25.79
2022-08-29T00:49:33.986Z,25.84
2022-08-29T00:50:40.927Z,25.81
2022-08-29T00:51:43.326Z,25.84
2022-08-29T00:52:48.219Z,25.82
2022-08-29T00:54:00.883Z,25.84
2022-08-29T00:55:06.735Z,25.83
2022-08-29T00:56:10.519Z,25.83
2022-08-29T00:57:12.979Z,25.82
2022-08-29T00:58:21.434Z,25.80
2022-08-29T00:59:36.910Z,25.84
2022-08-29T01:00:39.112Z,25.82
2022-08-29T01:01:40.943Z,25.82
2022-08-29T01:02:43.587Z,25.79
2022-08-29T01:03:45.943Z,25.78
2022-08-29T01:04:47.931Z,25.77
2022-08-29T01:05:49.836Z,25.75
2022-08-29T01:06:52.987Z,25.75
2022-08-29T01:07:55.283Z,25.76
2022-08-29T01:08:57.845Z,25.75
2022-08-29T01:10:00.315Z,25.76
2022-08-29T01:11:35.930Z,25.77
2022-08-29T01:12:37.946Z,25.82
2022-08-29T01:13:43.411Z,25.78
2022-08-29T01:14:55.473Z,25.77
2022-08-29T01:15:59.371Z,25.77
2022-08-29T01:17:04.094Z,25.75
2022-08-29T01:18:08.851Z,25.69
2022-08-29T01:19:31.699Z,25.76
2022-08-29T01:20:40.418Z,25.79
2022-08-29T01:21:47.531Z,25.76
2022-08-29T01:23:07.558Z,25.77
2022-08-29T01:24:43.874Z,25.74
2022-08-29T01:25:48.894Z,25.81
2022-08-29T01:26:51.002Z,25.74
2022-08-29T01:28:05.279Z,25.73
2022-08-29T01:29:07.280Z,25.69
2022-08-29T01:30:09.927Z,25.63
2022-08-29T01:31:37.534Z,25.67
2022-08-29T01:32:39.878Z,25.66
2022-08-29T01:33:48.417Z,25.68
2022-08-29T01:34:50.222Z,25.68
2022-08-29T01:35:52.614Z,25.56
2022-08-29T01:37:03.811Z,25.63
2022-08-29T01:38:05.663Z,25.62
2022-08-29T01:39:08.083Z,25.64
2022-08-29T01:40:11.707Z,25.63
2022-08-29T01:41:14.695Z,25.62
2022-08-29T01:42:23.655Z,25.62
2022-08-29T01:43:27.187Z,25.62
2022-08-29T01:44:29.062Z,25.52
2022-08-29T01:45:30.986Z,25.60
2022-08-29T01:46:34.709Z,25.60
2022-08-29T01:47:38.840Z,25.59
2022-08-29T01:48:43.304Z,25.60
2022-08-29T01:49:45.386Z,25.59
2022-08-29T01:50:48.016Z,25.53
2022-08-29T01:51:50.672Z,25.58
2022-08-29T01:52:52.403Z,25.58
2022-08-29T01:53:54.394Z,25.58
2022-08-29T01:54:56.643Z,25.57
2022-08-29T01:55:58.514Z,25.57
2022-08-29T01:57:01.802Z,25.53
2022-08-29T01:58:04.147Z,25.54
2022-08-29T01:59:10.959Z,25.55
2022-08-29T02:00:13.186Z,25.48
2022-08-29T02:01:18.997Z,25.55
2022-08-29T02:02:28.837Z,25.56
2022-08-29T02:03:30.788Z,25.49
2022-08-29T02:04:32.876Z,25.54
2022-08-29T02:05:35.216Z,25.55
2022-08-29T02:06:37.589Z,25.46
2022-08-29T02:07:39.690Z,25.52
2022-08-29T02:08:43.566Z,25.52
2022-08-29T02:09:46.535Z,25.46
2022-08-29T02:10:48.346Z,25.52
2022-08-29T02:11:50.246Z,25.52
2022-08-29T02:12:53.980Z,25.51
2022-08-29T02:13:58.552Z,25.44
2022-08-29T02:15:00.548Z,25.51
2022-08-29T02:16:02.742Z,25.51
2022-08-29T02:17:07.243Z,25.50
2022-08-29T02:18:09.047Z,25.51
2022-08-29T02:19:10.866Z,25.50
2022-08-29T02:20:12.764Z,25.51
2022-08-29T02:21:17.570Z,25.47
2022-08-29T02:22:22.266Z,25.50
2022-08-29T02:23:30.902Z,25.48
2022-08-29T02:24:33.625Z,25.50
2022-08-29T02:25:46.690Z,25.45
2022-08-29T02:26:48.451Z,25.50
2022-08-29T02:27:52.395Z,25.48
2022-08-29T02:28:54.310Z,25.49
2022-08-29T02:29:56.615Z,25.46
2022-08-29T02:30:59.107Z,25.47
2022-08-29T02:32:00.915Z,25.45
2022-08-29T02:33:03.549Z,25.44
2022-08-29T02:34:08.853Z,25.44
2022-08-29T02:35:14.091Z,25.45
2022-08-29T02:36:18.301Z,25.44
2022-08-29T02:37:21.549Z,25.42
2022-08-29T02:38:23.630Z,25.39
2022-08-29T02:39:26.592Z,25.43
2022-08-29T02:40:31.856Z,25.38
2022-08-29T02:41:34.459Z,25.43
2022-08-29T02:42:36.421Z,25.42
2022-08-29T02:43:38.248Z,25.43
2022-08-29T02:44:40.223Z,25.39
2022-08-29T02:45:42.195Z,25.19
2022-08-29T02:46:44.067Z,25.41
2022-08-29T02:47:46.451Z,25.37
2022-08-29T02:48:52.271Z,25.40
2022-08-29T02:50:09.851Z,25.45
2022-08-29T02:51:20.192Z,25.44
2022-08-29T02:52:21.922Z,25.44
2022-08-29T02:53:27.119Z,25.42
2022-08-29T02:54:28.957Z,25.38
2022-08-29T02:55:31.475Z,25.42
2022-08-29T02:56:33.387Z,25.41
2022-08-29T02:57:35.236Z,25.39
2022-08-29T02:58:36.987Z,25.40
2022-08-29T02:59:38.726Z,25.28
2022-08-29T03:00:40.858Z,25.26
2022-08-29T03:01:42.855Z,25.38
2022-08-29T03:02:47.347Z,25.31
2022-08-29T03:03:50.517Z,25.35
2022-08-29T03:04:52.364Z,25.38
2022-08-29T03:05:55.301Z,25.37
2022-08-29T03:06:57.785Z,25.38
2022-08-29T03:07:59.651Z,25.34
2022-08-29T03:09:01.518Z,25.36
2022-08-29T03:10:04.526Z,25.36
2022-08-29T03:11:06.719Z,25.36
2022-08-29T03:12:08.862Z,25.31
2022-08-29T03:13:11.934Z,25.34
2022-08-29T03:14:13.915Z,25.36
2022-08-29T03:15:18.403Z,25.36
2022-08-29T03:16:20.362Z,25.36
2022-08-29T03:17:22.267Z,25.35
2022-08-29T03:18:24.075Z,25.35
2022-08-29T03:19:26.523Z,25.32
2022-08-29T03:20:28.306Z,25.34
2022-08-29T03:21:30.416Z,25.32
2022-08-29T03:22:33.275Z,25.29
2022-08-29T03:23:35.290Z,25.27
2022-08-29T03:24:37.815Z,25.33
2022-08-29T03:25:39.654Z,25.31
2022-08-29T03:26:41.406Z,25.31
2022-08-29T03:27:43.530Z,25.27
2022-08-29T03:28:45.347Z,25.30
2022-08-29T03:29:47.231Z,25.30
2022-08-29T03:30:49.005Z,25.29
2022-08-29T03:31:50.892Z,25.24
2022-08-29T03:32:52.981Z,25.30
2022-08-29T03:33:54.754Z,25.29
2022-08-29T03:34:56.639Z,25.28
2022-08-29T03:35:58.421Z,25.29
2022-08-29T03:37:00.230Z,25.28
2022-08-29T03:38:02.002Z,25.28
2022-08-29T03:39:04.100Z,25.23
2022-08-29T03:40:08.025Z,25.25
2022-08-29T03:41:10.022Z,25.27
2022-08-29T03:42:12.060Z,25.26
2022-08-29T03:43:13.852Z,25.20
2022-08-29T03:44:15.675Z,25.21
2022-08-29T03:45:19.559Z,25.25
2022-08-29T03:46:22.545Z,25.25
2022-08-29T03:47:24.610Z,25.18
2022-08-29T03:48:26.379Z,25.18
2022-08-29T03:49:28.338Z,25.23
2022-08-29T03:50:30.255Z,25.13
2022-08-29T03:51:31.997Z,25.23
2022-08-29T03:52:33.935Z,25.22
2022-08-29T03:53:35.718Z,25.23
2022-08-29T03:54:38.595Z,25.23
2022-08-29T03:55:40.491Z,25.22
2022-08-29T03:56:42.278Z,25.17
2022-08-29T03:57:45.266Z,25.21
2022-08-29T03:58:53.230Z,25.21
2022-08-29T03:59:56.559Z,25.23
2022-08-29T04:00:58.959Z,25.23
2022-08-29T04:02:00.853Z,25.21
2022-08-29T04:03:02.977Z,25.20
2022-08-29T04:04:05.392Z,25.19
2022-08-29T04:05:08.467Z,25.18
2022-08-29T04:06:11.675Z,25.16
2022-08-29T04:07:14.896Z,25.19
2022-08-29T04:08:16.657Z,25.19
2022-08-29T04:09:18.686Z,25.18
2022-08-29T04:10:31.062Z,25.07
2022-08-29T04:11:32.838Z,25.20
2022-08-29T04:12:34.627Z,25.19
2022-08-29T04:13:36.539Z,25.17
2022-08-29T04:14:39.385Z,25.17
2022-08-29T04:15:42.604Z,25.17
2022-08-29T04:16:48.539Z,25.16
2022-08-29T04:17:55.366Z,25.02
2022-08-29T04:18:57.791Z,25.19
2022-08-29T04:19:59.931Z,25.19
2022-08-29T04:21:03.145Z,25.12
2022-08-29T04:22:06.079Z,25.11
2022-08-29T04:23:08.063Z,25.10
2022-08-29T04:24:09.823Z,25.17
2022-08-29T04:25:14.691Z,25.15
2022-08-29T04:26:35.814Z,25.16
2022-08-29T04:27:38.550Z,25.22
2022-08-29T04:28:40.847Z,25.11
2022-08-29T04:29:43.723Z,25.18
2022-08-29T04:30:51.663Z,25.17
2022-08-29T04:31:54.500Z,25.17
2022-08-29T04:32:56.910Z,25.15
2022-08-29T04:33:58.675Z,25.16
2022-08-29T04:35:00.642Z,25.14
2022-08-29T04:36:06.182Z,25.13
2022-08-29T04:37:07.914Z,25.14
2022-08-29T04:38:09.700Z,25.14
2022-08-29T04:39:12.463Z,25.14
2022-08-29T04:40:18.675Z,25.07
2022-08-29T04:41:21.387Z,25.05
2022-08-29T04:42:23.383Z,24.91
2022-08-29T04:43:25.109Z,25.12
2022-08-29T04:44:26.955Z,25.12
2022-08-29T04:45:29.206Z,25.12
2022-08-29T04:46:31.629Z,25.12
2022-08-29T04:47:36.588Z,25.11
2022-08-29T04:48:38.439Z,25.12
2022-08-29T04:49:40.383Z,25.12
2022-08-29T04:50:42.133Z,25.12
2022-08-29T04:51:44.039Z,25.11
2022-08-29T04:52:46.107Z,25.10
2022-08-29T04:53:48.358Z,25.05
2022-08-29T04:54:50.355Z,25.06
2022-08-29T04:56:06.570Z,25.11
2022-08-29T04:57:08.831Z,25.08
2022-08-29T04:58:12.991Z,25.06
2022-08-29T04:59:15.887Z,25.11
2022-08-29T05:00:21.626Z,25.10
2022-08-29T05:01:26.862Z,25.11
2022-08-29T05:02:29.139Z,25.05
2022-08-29T05:03:32.627Z,25.08
2022-08-29T05:04:34.503Z,25.05
2022-08-29T05:05:36.750Z,25.08
2022-08-29T05:06:38.503Z,25.09
2022-08-29T05:07:40.682Z,25.07
2022-08-29T05:08:43.994Z,25.08
2022-08-29T05:09:45.756Z,25.10
2022-08-29T05:10:47.891Z,25.10
2022-08-29T05:11:49.914Z,25.07
2022-08-29T05:12:51.699Z,25.13
2022-08-29T05:13:54.059Z,25.16
2022-08-29T05:14:56.104Z,25.14
2022-08-29T05:15:58.031Z,25.20
2022-08-29T05:16:59.999Z,25.22
2022-08-29T05:18:01.746Z,25.25
2022-08-29T05:19:05.648Z,25.27
2022-08-29T05:20:08.586Z,25.30
2022-08-29T05:21:11.002Z,25.34
2022-08-29T05:22:17.366Z,25.37
2022-08-29T05:23:19.298Z,25.41
2022-08-29T05:24:21.012Z,25.43
2022-08-29T05:25:23.005Z,25.48
2022-08-29T05:26:31.631Z,25.51
2022-08-29T05:27:33.834Z,25.56
2022-08-29T05:28:36.763Z,25.59
2022-08-29T05:29:43.700Z,25.63
2022-08-29T05:30:45.492Z,25.64
2022-08-29T05:31:49.603Z,25.69
2022-08-29T05:32:52.298Z,25.74
2022-08-29T05:33:55.150Z,25.77
2022-08-29T05:34:57.736Z,25.81
2022-08-29T05:35:59.487Z,25.85
2022-08-29T05:37:03.113Z,25.87
2022-08-29T05:38:14.755Z,25.91
2022-08-29T05:39:16.611Z,25.80
2022-08-29T05:40:18.615Z,25.97
2022-08-29T05:41:20.455Z,26.00
2022-08-29T05:42:22.893Z,26.02
2022-08-29T05:43:24.876Z,26.05
2022-08-29T05:44:34.199Z,26.06
2022-08-29T05:45:38.026Z,26.13
2022-08-29T05:46:40.094Z,26.15
2022-08-29T05:47:41.947Z,26.16
2022-08-29T05:48:43.746Z,26.13
2022-08-29T05:49:46.547Z,26.19
2022-08-29T05:50:48.304Z,26.22
2022-08-29T05:51:53.306Z,26.23
2022-08-29T05:52:55.160Z,26.26
2022-08-29T05:53:56.890Z,26.27
2022-08-29T05:54:58.732Z,26.27
2022-08-29T05:56:00.622Z,26.30
2022-08-29T05:57:02.743Z,26.31
2022-08-29T05:58:04.502Z,26.33
2022-08-29T05:59:06.479Z,26.35
2022-08-29T06:00:09.749Z,26.29
2022-08-29T06:01:25.918Z,26.33
2022-08-29T06:02:28.604Z,26.43
2022-08-29T06:03:31.451Z,26.44
2022-08-29T06:04:33.643Z,26.45
2022-08-29T06:05:35.453Z,26.40
2022-08-29T06:06:37.355Z,26.44
2022-08-29T06:07:39.260Z,26.41
2022-08-29T06:08:41.052Z,26.49
2022-08-29T06:09:46.228Z,26.50
2022-08-29T06:10:48.288Z,26.53
2022-08-29T06:11:53.323Z,26.49
2022-08-29T06:12:55.486Z,26.54
2022-08-29T06:13:58.415Z,26.55
2022-08-29T06:15:00.259Z,26.52
2022-08-29T06:16:02.285Z,26.57
2022-08-29T06:17:05.918Z,26.57
2022-08-29T06:18:09.929Z,26.60
2022-08-29T06:19:12.752Z,26.61
2022-08-29T06:20:15.115Z,26.61
2022-08-29T06:21:17.798Z,26.62
2022-08-29T06:22:22.391Z,26.63
2022-08-29T06:23:24.247Z,26.64
2022-08-29T06:24:31.334Z,26.65
2022-08-29T06:25:39.377Z,26.66
2022-08-29T06:26:44.202Z,26.62
2022-08-29T06:27:45.979Z,26.69
2022-08-29T06:28:48.546Z,26.61
2022-08-29T06:29:50.342Z,26.69
2022-08-29T06:30:52.092Z,26.68
2022-08-29T06:31:56.611Z,26.67
2022-08-29T06:32:58.839Z,26.68
2022-08-29T06:34:02.814Z,26.68
2022-08-29T06:35:05.499Z,26.59
2022-08-29T06:36:08.500Z,26.70
2022-08-29T06:37:10.459Z,26.70
2022-08-29T06:38:14.210Z,26.69
2022-08-29T06:39:16.197Z,26.71
2022-08-29T06:40:18.015Z,26.70
2022-08-29T06:41:19.849Z,26.70
2022-08-29T06:42:25.161Z,26.69
2022-08-29T06:43:30.343Z,26.68
2022-08-29T06:44:32.165Z,26.67
2022-08-29T06:45:40.417Z,26.70
2022-08-29T06:46:46.208Z,26.59
2022-08-29T06:47:48.087Z,26.66
2022-08-29T06:48:50.654Z,26.72
2022-08-29T06:49:52.738Z,26.65
2022-08-29T06:50:54.637Z,26.65
2022-08-29T06:51:58.356Z,26.71
2022-08-29T06:53:26.148Z,26.71
2022-08-29T06:54:24.030Z,26.58
2022-08-29T06:55:25.900Z,26.74
2022-08-29T06:56:28.395Z,26.72
2022-08-29T06:57:31.600Z,26.71
2022-08-29T06:58:34.222Z,26.73
2022-08-29T06:59:36.063Z,26.70
2022-08-29T07:00:41.212Z,26.71
2022-08-29T07:01:44.329Z,26.72
2022-08-29T07:02:52.457Z,26.71
2022-08-29T07:03:57.291Z,26.73
2022-08-29T07:04:59.030Z,26.74
2022-08-29T07:06:01.219Z,26.72
2022-08-29T07:07:03.157Z,26.74
2022-08-29T07:08:05.338Z,26.74
2022-08-29T07:09:08.252Z,26.73
2022-08-29T07:10:12.611Z,26.75
2022-08-29T07:11:14.335Z,26.67
2022-08-29T07:12:16.258Z,26.77
2022-08-29T07:13:18.072Z,26.76
2022-08-29T07:14:19.878Z,26.78
2022-08-29T07:15:23.393Z,26.77
2022-08-29T07:16:26.273Z,26.78
2022-08-29T07:17:31.350Z,26.74
2022-08-29T07:18:33.158Z,26.79
2022-08-29T07:19:35.043Z,26.80
2022-08-29T07:20:40.115Z,26.79
2022-08-29T07:21:42.051Z,26.81
2022-08-29T07:22:45.507Z,26.81
2022-08-29T07:23:47.492Z,26.68
2022-08-29T07:24:49.290Z,26.82
2022-08-29T07:25:51.044Z,26.77
2022-08-29T07:26:52.898Z,26.83
2022-08-29T07:27:54.663Z,26.82
2022-08-29T07:29:00.719Z,26.82
2022-08-29T07:30:06.510Z,26.82
2022-08-29T07:31:09.784Z,26.84
2022-08-29T07:32:11.850Z,26.85
2022-08-29T07:33:13.700Z,26.76
2022-08-29T07:34:20.244Z,26.85
2022-08-29T07:35:30.135Z,26.83
2022-08-29T07:36:34.430Z,26.85
2022-08-29T07:37:36.525Z,26.87
2022-08-29T07:38:39.651Z,26.86
2022-08-29T07:39:41.479Z,26.87
2022-08-29T07:40:43.383Z,26.81
2022-08-29T07:41:46.174Z,26.86
2022-08-29T07:42:48.008Z,26.86
2022-08-29T07:43:50.567Z,26.78
2022-08-29T07:44:52.419Z,26.86
2022-08-29T07:45:55.193Z,26.86
2022-08-29T07:46:59.214Z,26.87
2022-08-29T07:48:01.071Z,26.88
2022-08-29T07:49:03.739Z,26.87
2022-08-29T07:50:08.595Z,26.88
2022-08-29T07:51:16.775Z,26.88
2022-08-29T07:52:18.978Z,26.89
2022-08-29T07:53:20.768Z,26.89
2022-08-29T07:54:23.251Z,26.89
2022-08-29T07:55:25.117Z,26.89
2022-08-29T07:56:32.440Z,26.88
2022-08-29T07:57:40.028Z,26.91
2022-08-29T07:58:42.811Z,26.89
2022-08-29T07:59:45.015Z,26.87
2022-08-29T08:00:47.019Z,26.90
2022-08-29T08:01:49.315Z,26.85
2022-08-29T08:02:51.539Z,26.85
2022-08-29T08:03:53.882Z,26.91
2022-08-29T08:04:55.815Z,26.91
2022-08-29T08:05:57.759Z,26.88
2022-08-29T08:06:59.567Z,26.88
2022-08-29T08:08:05.244Z,26.91
2022-08-29T08:09:11.778Z,26.93
2022-08-29T08:10:13.703Z,26.93
2022-08-29T08:11:18.427Z,26.92
2022-08-29T08:12:20.170Z,26.92
2022-08-29T08:13:21.987Z,26.87
2022-08-29T08:14:23.924Z,26.92
2022-08-29T08:15:39.338Z,26.92
2022-08-29T08:16:44.125Z,26.92
2022-08-29T08:17:46.638Z,26.94
2022-08-29T08:18:49.417Z,26.87
2022-08-29T08:19:51.211Z,26.88
2022-08-29T08:20:53.394Z,26.90
2022-08-29T08:21:55.207Z,26.91
2022-08-29T08:22:57.415Z,26.77
2022-08-29T08:23:59.441Z,26.79
2022-08-29T08:25:01.727Z,26.89
2022-08-29T08:26:04.169Z,26.88
2022-08-29T08:27:06.128Z,26.86
2022-08-29T08:28:08.012Z,26.89
2022-08-29T08:29:12.542Z,26.85
2022-08-29T08:30:14.905Z,26.89
2022-08-29T08:31:17.710Z,26.86
2022-08-29T08:32:19.943Z,26.89
2022-08-29T08:33:21.752Z,26.89
2022-08-29T08:34:23.848Z,26.85
2022-08-29T08:35:25.776Z,26.82
2022-08-29T08:36:31.088Z,26.88
2022-08-29T08:37:32.953Z,26.86
2022-08-29T08:38:34.788Z,26.89
2022-08-29T08:39:37.673Z,26.89
2022-08-29T08:41:04.374Z,26.86
2022-08-29T08:42:24.812Z,26.97
2022-08-29T08:43:51.821Z,26.98
2022-08-29T08:45:14.562Z,26.99
2022-08-29T08:46:18.201Z,26.99
2022-08-29T08:47:33.296Z,26.95
2022-08-29T08:48:40.086Z,26.94
2022-08-29T08:49:50.280Z,26.94
2022-08-29T08:50:59.777Z,26.92
2022-08-29T08:52:10.464Z,26.87
2022-08-29T08:53:21.791Z,26.93
2022-08-29T08:54:26.118Z,26.90
2022-08-29T08:55:47.954Z,26.93
2022-08-29T08:57:00.048Z,26.93
2022-08-29T08:58:18.283Z,26.91
2022-08-29T08:59:33.220Z,26.95
2022-08-29T09:00:43.777Z,26.92
2022-08-29T09:02:06.532Z,26.93
2022-08-29T09:03:25.893Z,26.96
2022-08-29T09:04:52.987Z,26.96
2022-08-29T09:06:07.901Z,26.97
2022-08-29T09:07:39.407Z,26.95
2022-08-29T09:09:12.151Z,26.99
2022-08-29T09:10:37.388Z,26.99
2022-08-29T09:11:54.687Z,26.98
2022-08-29T09:13:06.648Z,26.97
2022-08-29T09:14:24.414Z,26.98
2022-08-29T09:15:33.983Z,26.95
2022-08-29T09:16:49.275Z,26.95
2022-08-29T09:18:01.273Z,26.96
2022-08-29T09:19:06.347Z,26.93
2022-08-29T09:20:14.086Z,26.92
2022-08-29T09:21:40.070Z,26.90
2022-08-29T09:22:45.554Z,26.97
2022-08-29T09:23:53.932Z,26.90
2022-08-29T09:25:04.082Z,26.94
2022-08-29T09:26:06.679Z,26.94
2022-08-29T09:27:22.218Z,26.94
2022-08-29T09:28:24.566Z,26.90
2022-08-29T09:29:30.519Z,26.93
2022-08-29T09:30:37.042Z,26.93
2022-08-29T09:31:38.897Z,26.94
2022-08-29T09:33:07.776Z,26.98
2022-08-29T09:34:50.581Z,26.91
2022-08-29T09:35:56.002Z,27.05
2022-08-29T09:36:57.785Z,27.00
2022-08-29T09:38:07.207Z,26.96
2022-08-29T09:39:31.376Z,27.00
2022-08-29T09:40:55.574Z,27.01
2022-08-29T09:42:12.334Z,27.03
2022-08-29T09:43:31.839Z,27.01
2022-08-29T09:44:35.502Z,26.99
2022-08-29T09:45:37.403Z,26.95
2022-08-29T09:46:39.250Z,26.94
2022-08-29T09:47:41.070Z,26.92
2022-08-29T09:48:49.279Z,26.85
2022-08-29T09:50:20.224Z,26.97
2022-08-29T09:51:24.648Z,26.99
2022-08-29T09:52:27.135Z,26.89
2022-08-29T09:53:29.239Z,26.92
2022-08-29T09:54:31.970Z,26.91
2022-08-29T09:55:40.341Z,26.89
2022-08-29T09:57:08.431Z,26.98
2022-08-29T09:58:12.933Z,26.96
2022-08-29T09:59:37.365Z,26.94
2022-08-29T10:00:59.406Z,26.98
2022-08-29T10:02:17.225Z,26.99
2022-08-29T10:03:23.617Z,26.95
2022-08-29T10:04:40.618Z,26.99
2022-08-29T10:05:46.275Z,26.95
2022-08-29T10:06:52.534Z,26.97
2022-08-29T10:07:55.539Z,26.94
2022-08-29T10:09:23.995Z,26.98
2022-08-29T10:10:30.814Z,27.01
2022-08-29T10:11:32.636Z,27.01
2022-08-29T10:12:52.088Z,26.97
2022-08-29T10:14:02.986Z,27.03
2022-08-29T10:15:10.520Z,26.96
2022-08-29T10:16:34.218Z,27.05
2022-08-29T10:18:02.669Z,27.05
2022-08-29T10:19:26.660Z,27.09
2022-08-29T10:21:05.712Z,27.17
2022-08-29T10:22:39.040Z,27.18
2022-08-29T10:24:15.984Z,27.19
2022-08-29T10:25:23.638Z,27.19
2022-08-29T10:26:37.594Z,27.12
2022-08-29T10:27:57.770Z,27.14
2022-08-29T10:29:06.963Z,27.12
2022-08-29T10:30:16.425Z,27.11
2022-08-29T10:31:46.125Z,27.09
2022-08-29T10:32:50.887Z,27.14
2022-08-29T10:34:05.282Z,27.11
2022-08-29T10:35:21.942Z,27.12
2022-08-29T10:36:34.051Z,27.14
2022-08-29T10:37:49.210Z,27.15
2022-08-29T10:39:08.907Z,27.14
2022-08-29T10:40:38.220Z,27.15
2022-08-29T10:41:58.603Z,27.21
2022-08-29T10:43:27.383Z,27.23
2022-08-29T10:44:59.939Z,27.23
2022-08-29T10:46:37.442Z,27.23
2022-08-29T10:47:45.225Z,27.08
2022-08-29T10:49:17.943Z,27.21
2022-08-29T10:50:45.793Z,27.24
2022-08-29T10:52:23.706Z,27.27
2022-08-29T10:53:40.267Z,27.22
2022-08-29T10:54:50.834Z,27.24
2022-08-29T10:56:01.046Z,27.21
2022-08-29T10:57:09.221Z,27.21
2022-08-29T10:58:29.017Z,27.21
2022-08-29T10:59:30.818Z,27.21
2022-08-29T11:00:51.834Z,27.19
2022-08-29T11:02:08.702Z,27.22
2022-08-29T11:03:23.010Z,27.22
2022-08-29T11:04:34.614Z,27.20
2022-08-29T11:05:43.452Z,27.18
2022-08-29T11:07:32.872Z,27.27
2022-08-29T11:08:44.528Z,27.25
2022-08-29T11:10:11.565Z,27.26
2022-08-29T11:11:19.840Z,27.23
2022-08-29T11:12:41.735Z,27.23
2022-08-29T11:13:49.470Z,27.22
2022-08-29T11:15:07.476Z,27.17
2022-08-29T11:16:22.613Z,27.18
2022-08-29T11:17:29.799Z,27.10
2022-08-29T11:19:00.516Z,27.23
2022-08-29T11:20:11.746Z,27.23
2022-08-29T11:21:26.803Z,27.21
2022-08-29T11:22:42.522Z,27.22
2022-08-29T11:23:47.172Z,27.16
2022-08-29T11:25:00.471Z,27.19
2022-08-29T11:26:27.546Z,27.20
2022-08-29T11:27:41.812Z,27.24
2022-08-29T11:29:21.687Z,27.24
2022-08-29T11:30:33.442Z,27.26
2022-08-29T11:31:46.322Z,27.25
2022-08-29T11:32:56.919Z,27.23
2022-08-29T11:34:06.966Z,27.21
2022-08-29T11:35:21.355Z,27.20
2022-08-29T11:36:38.671Z,27.23
2022-08-29T11:38:03.807Z,27.20
2022-08-29T11:39:34.498Z,27.24
2022-08-29T11:42:50.666Z,27.30
2022-08-29T11:43:57.759Z,27.22
2022-08-29T11:45:01.421Z,27.24
2022-08-29T11:46:08.154Z,27.16
2022-08-29T11:47:57.495Z,27.23
2022-08-29T11:49:21.687Z,27.30
2022-08-29T11:50:44.601Z,27.30
2022-08-29T11:51:52.627Z,27.24
2022-08-29T11:53:06.186Z,27.23
2022-08-29T11:54:26.707Z,27.26
2022-08-29T11:55:40.185Z,27.18
2022-08-29T11:56:42.104Z,27.23
2022-08-29T11:57:49.741Z,27.19
2022-08-29T11:58:54.423Z,27.18
2022-08-29T11:59:58.772Z,27.12
2022-08-29T12:01:00.704Z,27.17
2022-08-29T12:02:02.528Z,27.16
2022-08-29T12:03:29.013Z,27.14
2022-08-29T12:04:54.821Z,27.24
2022-08-29T12:06:02.613Z,27.16
2022-08-29T12:07:04.917Z,27.21
2022-08-29T12:08:36.844Z,27.19
2022-08-29T12:09:48.303Z,27.23
2022-08-29T12:10:56.254Z,27.22
2022-08-29T12:12:12.935Z,27.21
2022-08-29T12:13:43.711Z,27.26
2022-08-29T12:14:52.673Z,27.21
2022-08-29T12:16:08.579Z,27.24
2022-08-29T12:18:00.901Z,27.28
2022-08-29T12:19:03.691Z,27.31
2022-08-29T12:20:15.991Z,27.26
2022-08-29T12:21:44.346Z,27.28
2022-08-29T12:22:52.320Z,27.28
2022-08-29T12:23:54.222Z,27.26
2022-08-29T12:24:57.870Z,27.23
2022-08-29T12:26:21.580Z,27.20
2022-08-29T12:28:02.947Z,27.28
2022-08-29T12:29:10.207Z,27.30
2022-08-29T12:30:14.566Z,27.26
2022-08-29T12:31:25.387Z,27.24
2022-08-29T12:32:40.066Z,27.17
2022-08-29T12:33:42.058Z,27.25
2022-08-29T12:35:14.508Z,27.01
2022-08-29T12:36:19.375Z,27.26
2022-08-29T12:37:28.694Z,27.23
2022-08-29T12:38:56.939Z,27.18
2022-08-29T12:40:05.426Z,27.26
2022-08-29T12:41:22.434Z,27.24
2022-08-29T12:42:39.020Z,27.24
2022-08-29T12:43:44.744Z,27.24
2022-08-29T12:44:50.891Z,27.17
2022-08-29T12:45:54.105Z,27.20
2022-08-29T12:47:03.289Z,27.19
2022-08-29T12:48:09.587Z,27.19
2022-08-29T12:49:48.436Z,27.18
2022-08-29T12:50:50.510Z,27.23
2022-08-29T12:51:58.716Z,27.21
2022-08-29T12:53:20.238Z,27.22
2022-08-29T12:54:35.103Z,27.23
2022-08-29T12:55:44.041Z,27.16
2022-08-29T12:56:51.058Z,27.20
2022-08-29T12:57:53.895Z,27.19
2022-08-29T12:58:58.850Z,27.08
2022-08-29T13:00:03.765Z,27.09
2022-08-29T13:01:19.017Z,27.17
2022-08-29T13:02:38.016Z,27.21
2022-08-29T13:03:39.893Z,27.22
2022-08-29T13:04:43.906Z,27.17
2022-08-29T13:05:46.600Z,27.18
2022-08-29T13:06:56.199Z,27.17
2022-08-29T13:08:02.863Z,27.18
2022-08-29T13:09:06.163Z,27.17
2022-08-29T13:10:17.446Z,27.16
2022-08-29T13:11:23.269Z,27.16
2022-08-29T13:12:33.443Z,27.17
2022-08-29T13:13:36.268Z,27.18
2022-08-29T13:14:48.294Z,27.19
2022-08-29T13:15:51.851Z,27.17
2022-08-29T13:16:53.624Z,27.17
2022-08-29T13:17:56.103Z,27.16
2022-08-29T13:19:11.006Z,27.16
2022-08-29T13:20:38.462Z,27.22
2022-08-29T13:21:40.279Z,27.22
2022-08-29T13:22:42.039Z,27.19
2022-08-29T13:23:46.275Z,27.15
2022-08-29T13:24:48.078Z,27.14
2022-08-29T13:25:56.539Z,27.12
2022-08-29T13:27:04.717Z,27.15
2022-08-29T13:28:15.028Z,27.15
2022-08-29T13:30:40.622Z,27.21
2022-08-29T13:31:44.315Z,27.18
2022-08-29T13:32:51.637Z,27.14
2022-08-29T13:33:55.967Z,27.16
2022-08-29T13:35:18.766Z,27.19
2022-08-29T13:36:42.422Z,27.22
2022-08-29T13:37:46.790Z,27.20
2022-08-29T13:39:17.437Z,27.22
2022-08-29T13:40:46.906Z,27.24
2022-08-29T13:42:12.774Z,27.27
2022-08-29T13:43:41.532Z,27.26
2022-08-29T13:44:58.651Z,27.26
2022-08-29T13:46:14.846Z,27.24
2022-08-29T13:47:26.639Z,27.22
2022-08-29T13:48:28.626Z,27.15
2022-08-29T13:49:34.016Z,27.15
2022-08-29T13:50:35.887Z,27.12
2022-08-29T13:51:37.725Z,27.13
2022-08-29T13:52:39.542Z,27.12
2022-08-29T13:53:45.460Z,27.11
2022-08-29T13:54:47.631Z,27.11
2022-08-29T13:55:49.388Z,27.11
2022-08-29T13:56:54.948Z,27.10
2022-08-29T13:57:57.455Z,27.11
2022-08-29T13:58:59.346Z,27.11
2022-08-29T14:00:02.944Z,27.10
2022-08-29T14:02:30.450Z,27.16
2022-08-29T14:03:33.171Z,27.12
2022-08-29T14:04:38.515Z,27.04
2022-08-29T14:05:41.531Z,27.12
2022-08-29T14:06:44.322Z,27.06
2022-08-29T14:07:46.755Z,27.10
2022-08-29T14:08:49.605Z,27.09
2022-08-29T14:09:52.005Z,27.09
2022-08-29T14:10:53.816Z,27.09
2022-08-29T14:11:55.810Z,27.10
2022-08-29T14:12:58.150Z,27.09
2022-08-29T14:13:59.965Z,27.02
2022-08-29T14:15:09.338Z,27.09
2022-08-29T14:16:12.043Z,27.11
2022-08-29T14:17:18.444Z,27.04
2022-08-29T14:18:20.536Z,27.06
2022-08-29T14:19:27.108Z,27.11
2022-08-29T14:20:28.901Z,27.09
2022-08-29T14:21:31.187Z,27.11
2022-08-29T14:22:33.008Z,27.10
2022-08-29T14:23:35.520Z,27.03
2022-08-29T14:24:37.787Z,27.09
2022-08-29T14:25:39.598Z,27.10
2022-08-29T14:26:41.679Z,27.09
2022-08-29T14:27:44.821Z,27.09